Terminal Aerodrome Forecast
Issued by NWS

Home | Current Version | Previous Version | Text Only | Print | Product List | Glossary On
Versions: 1 2 3 4 5 6 7 8 9 10 11 12 13 14 15 16 17 18 19
971
FTUS43 KAPX 280526
TAFTVC
TAF
KTVC 280526Z 2806/2906 17004KT 6SM -SHRA BR SCT022 OVC050
     FM281100 00000KT P6SM VCSH BKN025 OVC040
     FM281400 07005KT P6SM VCSH OVC025
     FM281600 06006KT P6SM SCT025 BKN035
     FM282200 05011G19KT P6SM SCT050
     FM290100 04006KT P6SM FEW200=

USA.gov is the U.S. government's official web portal to all federal, state and local government web resources and services.